CheckWX is a tool to help pilots better visualize weather data.  It is not intended as a substitute for an official pre-flight weather briefing.

20:50:52 UTC

KGRI TAF
Central Nebraska Regional Airport
Grand Island, Nebraska, USA
KGRI 171959Z 1720/1818 18012KT P6SM FEW040 FM180300 21009KT P6SM VCTS SCT050CB BKN100 FM180700 30008KT P6SM SCT150 FM181200 35011KT P6SM SCT007 BKN015

Aug-17@
20:00 UTC

Aug-17 @ 20:00 UTC

Aug-18@
03:00 UTC

Aug-18 @ 03:00 UTC

KGRI 171959Z 1720/1818 18012KT P6SM FEW040
Wind
  • 180° at 12 KTS
Cloud Levels
  • Few at 4,000' AGL

Aug-18@
03:00 UTC

Aug-18 @ 03:00 UTC

Aug-18@
07:00 UTC

Aug-18 @ 07:00 UTC

FM180300 21009KT P6SM VCTS SCT050CB BKN100

From

From Standard forecast or significant change

Wind
  • 210° at 9 KTS
Conditions
Area Thunderstorm
Cloud Levels
  • Scattered at 5,000' AGL
  • Broken at 10,000' AGL

Aug-18@
07:00 UTC

Aug-18 @ 07:00 UTC

Aug-18@
12:00 UTC

Aug-18 @ 12:00 UTC

FM180700 30008KT P6SM SCT150

From

From Standard forecast or significant change

Wind
  • 300° at 8 KTS
Cloud Levels
  • Scattered at 15,000' AGL

Aug-18@
12:00 UTC

Aug-18 @ 12:00 UTC

Aug-18@
18:00 UTC

Aug-18 @ 18:00 UTC

FM181200 35011KT P6SM SCT007 BKN015

From

From Standard forecast or significant change

Wind
  • 350° at 11 KTS
Cloud Levels
  • Scattered at 700' AGL
  • Broken at 1,500' AGL